| time (UTC) | temp F | wind direction | speed MPH | gust MPH | rain 1hr in | rain 24hr in | rain mn in | humidity % | barometer mb |
| 20260905150433 | 99 | 0.0 | 0.0 | 0.00 | 0.00 | 0.00 | 64 | 1023.0 | |
| 20260905144933 | 100 | 0.0 | 0.0 | 0.00 | 0.00 | 0.00 | 64 | 1022.9 | |
| 20260905143433 | 100 | 0.0 | 0.0 | 0.00 | 0.00 | 0.00 | 63 | 1022.8 | |
| 20260905141933 | 101 | 0.0 | 0.0 | 0.00 | 0.00 | 0.00 | 62 | 1022.5 | |
| 20260905141433 | 101 | 0.0 | 0.0 | 0.00 | 0.00 | 0.00 | 61 | 1022.4 | |
| 20260905135933 | 101 | 0.0 | 0.0 | 0.00 | 0.00 | 0.00 | 62 | 1022.3 | |
| 20260905135433 | 101 | 0.0 | 0.0 | 0.00 | 0.00 | 0.00 | 61 | 1022.3 | |
| 20260905134933 | 101 | 0.0 | 0.0 | 0.00 | 0.00 | 0.00 | 62 | 1022.2 | |
| 20260905134433 | 101 | 0.0 | 0.0 | 0.00 | 0.00 | 0.00 | 62 | 1022.0 | |
| 20260905133933 | 101 | 0.0 | 0.0 | 0.00 | 0.00 | 0.00 | 62 | 1021.9 | |
| 20260905133433 | 100 | 0.0 | 0.0 | 0.00 | 0.00 | 0.00 | 63 | 1021.9 | |
| 20260905132933 | 101 | 0.0 | 0.0 | 0.00 | 0.00 | 0.00 | 62 | 1021.8 | |
| 20260905132433 | 101 | 0.0 | 0.0 | 0.00 | 0.00 | 0.00 | 61 | 1021.7 | |
| 20260905130933 | 102 | 0.0 | 0.0 | 0.00 | 0.00 | 0.00 | 61 | 1021.6 | |
| 20260905125433 | 102 | 0.0 | 0.0 | 0.00 | 0.00 | 0.00 | 60 | 1021.8 | |
| 20260905123433 | 102 | 0.0 | 0.0 | 0.00 | 0.00 | 0.00 | 61 | 1021.3 | |
| 20260905122933 | 102 | 0.0 | 0.0 | 0.00 | 0.00 | 0.00 | 61 | 1021.1 | |
| 20260905122433 | 102 | 0.0 | 0.0 | 0.00 | 0.00 | 0.00 | 60 | 1021.1 | |
| 20260905121933 | 102 | 0.0 | 0.0 | 0.00 | 0.00 | 0.00 | 60 | 1021.0 | |
| 20260905121433 | 102 | 0.0 | 0.0 | 0.00 | 0.00 | 0.00 | 60 | 1020.9 | |
| 20260905115933 | 101 | 0.0 | 0.0 | 0.00 | 0.00 | 0.00 | 61 | 1020.9 | |
| 20260905115433 | 101 | 0.0 | 0.0 | 0.00 | 0.00 | 0.00 | 62 | 1020.8 | |
| 20260905114933 | 101 | 0.0 | 0.0 | 0.00 | 0.00 | 0.00 | 62 | 1020.7 | |
| 20260905114433 | 101 | 0.0 | 0.0 | 0.00 | 0.00 | 0.00 | 62 | 1020.6 | |
| 20260905113933 | 101 | 0.0 | 0.0 | 0.00 | 0.00 | 0.00 | 62 | 1020.4 | |
| 20260905111933 | 102 | 0.0 | 0.0 | 0.00 | 0.00 | 0.00 | 61 | 1020.1 | |
| 20260905105933 | 100 | 0.0 | 0.0 | 0.00 | 0.00 | 0.00 | 62 | 1019.8 | |
| 20260905105433 | 100 | 0.0 | 0.0 | 0.00 | 0.00 | 0.00 | 62 | 1019.6 | |
| 20260905101933 | 102 | 0.0 | 0.0 | 0.00 | 0.00 | 0.00 | 61 | 1019.4 | |
| 20260905100933 | 101 | 0.0 | 0.0 | 0.00 | 0.00 | 0.00 | 62 | 1019.3 | |
| 20260905100433 | 98 | 0.0 | 0.0 | 0.00 | 0.00 | 0.00 | 66 | 1019.2 | |
| 20260905094933 | 102 | 0.0 | 0.0 | 0.00 | 0.00 | 0.00 | 61 | 1019.2 | |
| 20260905093933 | 102 | 0.0 | 0.0 | 0.00 | 0.00 | 0.00 | 59 | 1019.2 | |
| 20260905092933 | 101 | 0.0 | 0.0 | 0.00 | 0.00 | 0.00 | 62 | 1019.3 | |
| 20260905091933 | 103 | 0.0 | 0.0 | 0.00 | 0.00 | 0.00 | 60 | 1019.3 | |
| 20260905090933 | 95 | 0.0 | 0.0 | 0.00 | 0.00 | 0.00 | 69 | 1019.3 | |
| 20260905090433 | 103 | 0.0 | 0.0 | 0.00 | 0.00 | 0.00 | 59 | 1019.3 | |
| 20260905084933 | 100 | 0.0 | 0.0 | 0.00 | 0.00 | 0.00 | 63 | 1019.3 | |
| 20260905082933 | 103 | 0.0 | 0.0 | 0.00 | 0.00 | 0.00 | 60 | 1019.4 | |
| 20260905082433 | 104 | 0.0 | 0.0 | 0.00 | 0.00 | 0.00 | 58 | 1019.3 | |
| 20260905081933 | 102 | 0.0 | 0.0 | 0.00 | 0.00 | 0.00 | 59 | 1019.4 | |
| 20260905081433 | 105 | 0.0 | 0.0 | 0.00 | 0.00 | 0.00 | 58 | 1019.5 | |
| 20260905080433 | 100 | 0.0 | 0.0 | 0.00 | 0.00 | 0.00 | 63 | 1019.6 | |
| 20260905075933 | 102 | 0.0 | 0.0 | 0.00 | 0.00 | 0.00 | 61 | 1019.5 | |
| 20260905075433 | 101 | 0.0 | 0.0 | 0.00 | 0.00 | 0.00 | 62 | 1019.5 | |
| 20260905073933 | 101 | 0.0 | 0.0 | 0.00 | 0.00 | 0.00 | 62 | 1019.8 | |
| 20260905073433 | 97 | 0.0 | 0.0 | 0.00 | 0.00 | 0.00 | 66 | 1019.9 | |
| 20260905072433 | 100 | 0.0 | 0.0 | 0.00 | 0.00 | 0.00 | 63 | 1020.0 | |
| 20260905071933 | 105 | 0.0 | 0.0 | 0.00 | 0.00 | 0.00 | 57 | 1020.1 | |
| 20260905065933 | 97 | 0.0 | 0.0 | 0.00 | 0.00 | 0.00 | 66 | 1020.3 | |
| 20260905065433 | 97 | 0.0 | 0.0 | 0.00 | 0.00 | 0.00 | 66 | 1020.4 | |
| 20260905064933 | 102 | 0.0 | 0.0 | 0.00 | 0.00 | 0.00 | 59 | 1020.4 | |
| 20260905063933 | 103 | 0.0 | 0.0 | 0.00 | 0.00 | 0.00 | 59 | 1020.6 | |
| 20260905063433 | 98 | 0.0 | 0.0 | 0.00 | 0.00 | 0.00 | 63 | 1020.8 | |
| 20260905062933 | 102 | 0.0 | 0.0 | 0.00 | 0.00 | 0.00 | 60 | 1020.8 | |
| 20260905062433 | 102 | 0.0 | 0.0 | 0.00 | 0.00 | 0.00 | 60 | 1020.8 | |
| 20260905061433 | 101 | 0.0 | 0.0 | 0.00 | 0.00 | 0.00 | 62 | 1021.0 | |
| 20260905060933 | 100 | 0.0 | 0.0 | 0.00 | 0.00 | 0.00 | 60 | 1021.0 | |
| 20260905060433 | 103 | 0.0 | 0.0 | 0.00 | 0.00 | 0.00 | 58 | 1021.1 | |
| 20260905055433 | 102 | 0.0 | 0.0 | 0.00 | 0.00 | 0.00 | 60 | 1021.4 | |
| 20260905054933 | 103 | 0.0 | 0.0 | 0.00 | 0.00 | 0.00 | 59 | 1021.5 | |
| 20260905054433 | 100 | 0.0 | 0.0 | 0.00 | 0.00 | 0.00 | 60 | 1021.6 | |
| 20260905053933 | 104 | 0.0 | 0.0 | 0.00 | 0.00 | 0.00 | 59 | 1021.6 | |
| 20260905052433 | 103 | 0.0 | 0.0 | 0.00 | 0.00 | 0.00 | 59 | 1021.9 | |
| 20260905051433 | 103 | 0.0 | 0.0 | 0.00 | 0.00 | 0.00 | 59 | 1022.3 | |
| 20260905044433 | 102 | 0.0 | 0.0 | 0.00 | 0.00 | 0.00 | 60 | 1022.5 | |
| 20260905042933 | 104 | 0.0 | 0.0 | 0.00 | 0.00 | 0.00 | 59 | 1022.6 | |
| 20260905042433 | 103 | 0.0 | 0.0 | 0.00 | 0.00 | 0.00 | 59 | 1022.7 | |
| 20260905041933 | 103 | 0.0 | 0.0 | 0.00 | 0.00 | 0.00 | 60 | 1022.8 | |
| 20260905041433 | 102 | 0.0 | 0.0 | 0.00 | 0.00 | 0.00 | 61 | 1022.9 | |
| 20260905035933 | 102 | 0.0 | 0.0 | 0.00 | 0.00 | 0.00 | 60 | 1023.1 | |
| 20260905035433 | 102 | 0.0 | 0.0 | 0.00 | 0.00 | 0.00 | 60 | 1023.1 | |
| 20260905034933 | 103 | 0.0 | 0.0 | 0.00 | 0.00 | 0.00 | 60 | 1023.2 | |
| 20260905034433 | 100 | 0.0 | 0.0 | 0.00 | 0.00 | 0.00 | 61 | 1023.3 | |
| 20260905030433 | 101 | 0.0 | 0.0 | 0.00 | 0.00 | 0.00 | 61 | 1023.6 | |
| 20260905025433 | 100 | 0.0 | 0.0 | 0.00 | 0.00 | 0.00 | 62 | 1023.5 | |
| 20260905024933 | 99 | 0.0 | 0.0 | 0.00 | 0.00 | 0.00 | 62 | 1023.6 | |
| 20260905022933 | 99 | 0.0 | 0.0 | 0.00 | 0.00 | 0.00 | 63 | 1023.6 | |
| 20260905021933 | 99 | 0.0 | 0.0 | 0.00 | 0.00 | 0.00 | 62 | 1023.6 | |
| 20260905021433 | 98 | 0.0 | 0.0 | 0.00 | 0.00 | 0.00 | 63 | 1023.6 | |
| 20260905014933 | 97 | 0.0 | 0.0 | 0.00 | 0.00 | 0.00 | 64 | 1023.7 | |
| 20260905014433 | 97 | 0.0 | 0.0 | 0.00 | 0.00 | 0.00 | 64 | 1023.8 | |
| 20260905013933 | 97 | 0.0 | 0.0 | 0.00 | 0.00 | 0.00 | 64 | 1023.7 | |
| 20260905012433 | 97 | 0.0 | 0.0 | 0.00 | 0.00 | 0.00 | 64 | 1023.5 | |
| 20260905010933 | 96 | 0.0 | 0.0 | 0.00 | 0.00 | 0.00 | 65 | 1023.5 | |
| 20260905005933 | 96 | 0.0 | 0.0 | 0.00 | 0.00 | 0.00 | 64 | 1023.3 | |
| 20260905005433 | 96 | 0.0 | 0.0 | 0.00 | 0.00 | 0.00 | 65 | 1023.2 | |
| 20260905004933 | 96 | 0.0 | 0.0 | 0.00 | 0.00 | 0.00 | 64 | 1023.0 | |
| 20260905003433 | 96 | 0.0 | 0.0 | 0.00 | 0.00 | 0.00 | 63 | 1022.8 | |
| 20260905001433 | 96 | 0.0 | 0.0 | 0.00 | 0.00 | 0.00 | 64 | 1022.5 | |
| 20260905000433 | 96 | 0.0 | 0.0 | 0.00 | 0.00 | 0.00 | 64 | 1022.5 | |
| 20260904235933 | 95 | 0.0 | 0.0 | 0.00 | 0.00 | 0.00 | 64 | 1022.5 | |
| 20260904235433 | 94 | 0.0 | 0.0 | 0.00 | 0.00 | 0.00 | 66 | 1022.4 | |
| 20260904234933 | 95 | 0.0 | 0.0 | 0.00 | 0.00 | 0.00 | 65 | 1022.4 | |
| 20260904232433 | 95 | 0.0 | 0.0 | 0.00 | 0.00 | 0.00 | 66 | 1022.2 | |
| 20260904231933 | 95 | 0.0 | 0.0 | 0.00 | 0.00 | 0.00 | 66 | 1022.1 | |
| 20260904230933 | 93 | 0.0 | 0.0 | 0.00 | 0.00 | 0.00 | 68 | 1022.0 | |
| 20260904230433 | 93 | 0.0 | 0.0 | 0.00 | 0.00 | 0.00 | 68 | 1022.0 | |
| 20260904224933 | 93 | 0.0 | 0.0 | 0.00 | 0.00 | 0.00 | 68 | 1021.9 | |
| 20260904224433 | 93 | 0.0 | 0.0 | 0.00 | 0.00 | 0.00 | 67 | 1021.8 | |
| 20260904223933 | 94 | 0.0 | 0.0 | 0.00 | 0.00 | 0.00 | 67 | 1021.9 | |
| 20260904222933 | 93 | 0.0 | 0.0 | 0.00 | 0.00 | 0.00 | 68 | 1021.9 | |
| 20260904222433 | 93 | 0.0 | 0.0 | 0.00 | 0.00 | 0.00 | 68 | 1021.9 | |
| 20260904221933 | 94 | 0.0 | 0.0 | 0.00 | 0.00 | 0.00 | 67 | 1021.8 | |
| 20260904221433 | 93 | 0.0 | 0.0 | 0.00 | 0.00 | 0.00 | 68 | 1021.8 | |
| 20260904215933 | 93 | 0.0 | 0.0 | 0.00 | 0.00 | 0.00 | 67 | 1021.8 | |
| 20260904213933 | 94 | 0.0 | 0.0 | 0.00 | 0.00 | 0.00 | 67 | 1021.6 | |
| 20260904213433 | 94 | 0.0 | 0.0 | 0.00 | 0.00 | 0.00 | 67 | 1021.6 | |
| 20260904212933 | 94 | 0.0 | 0.0 | 0.00 | 0.00 | 0.00 | 67 | 1021.7 | |
| 20260904210933 | 94 | 0.0 | 0.0 | 0.00 | 0.00 | 0.00 | 67 | 1021.6 | |
| 20260904210433 | 94 | 0.0 | 0.0 | 0.00 | 0.00 | 0.00 | 67 | 1021.5 | |
| 20260904205933 | 94 | 0.0 | 0.0 | 0.00 | 0.00 | 0.00 | 67 | 1021.5 | |
| 20260904203933 | 95 | 0.0 | 0.0 | 0.00 | 0.00 | 0.00 | 65 | 1021.4 | |
| 20260904202933 | 93 | 0.0 | 0.0 | 0.00 | 0.00 | 0.00 | 69 | 1021.4 | |
| 20260904202433 | 93 | 0.0 | 0.0 | 0.00 | 0.00 | 0.00 | 68 | 1021.5 | |
| 20260904201433 | 93 | 0.0 | 0.0 | 0.00 | 0.00 | 0.00 | 68 | 1021.5 | |
| 20260904200932 | 95 | 0.0 | 0.0 | 0.00 | 0.00 | 0.00 | 66 | 1021.4 | |
| 20260904200433 | 95 | 0.0 | 0.0 | 0.00 | 0.00 | 0.00 | 66 | 1021.5 | |
| 20260904195432 | 94 | 0.0 | 0.0 | 0.00 | 0.00 | 0.00 | 68 | 1021.6 | |
| 20260904194433 | 96 | 0.0 | 0.0 | 0.00 | 0.00 | 0.00 | 64 | 1021.6 | |
| 20260904193933 | 95 | 0.0 | 0.0 | 0.00 | 0.00 | 0.00 | 66 | 1021.6 | |
| 20260904193433 | 95 | 0.0 | 0.0 | 0.00 | 0.00 | 0.00 | 65 | 1021.6 | |
| 20260904192933 | 97 | 0.0 | 0.0 | 0.00 | 0.00 | 0.00 | 63 | 1021.6 | |
| 20260904192433 | 95 | 0.0 | 0.0 | 0.00 | 0.00 | 0.00 | 66 | 1021.8 | |
| 20260904190933 | 96 | 0.0 | 0.0 | 0.00 | 0.00 | 0.00 | 64 | 1021.9 | |
| 20260904190433 | 95 | 0.0 | 0.0 | 0.00 | 0.00 | 0.00 | 65 | 1021.9 | |
| 20260904185933 | 95 | 0.0 | 0.0 | 0.00 | 0.00 | 0.00 | 65 | 1021.9 | |
| 20260904184933 | 96 | 0.0 | 0.0 | 0.00 | 0.00 | 0.00 | 64 | 1021.9 | |
| 20260904184433 | 96 | 0.0 | 0.0 | 0.00 | 0.00 | 0.00 | 64 | 1022.0 | |
| 20260904183433 | 95 | 0.0 | 0.0 | 0.00 | 0.00 | 0.00 | 66 | 1022.1 | |
| 20260904181933 | 96 | 0.0 | 0.0 | 0.00 | 0.00 | 0.00 | 64 | 1022.1 | |
| 20260904181433 | 96 | 0.0 | 0.0 | 0.00 | 0.00 | 0.00 | 64 | 1022.1 | |
| 20260904180933 | 97 | 0.0 | 0.0 | 0.00 | 0.00 | 0.00 | 63 | 1022.1 | |
| 20260904180433 | 95 | 0.0 | 0.0 | 0.00 | 0.00 | 0.00 | 65 | 1022.2 | |
| 20260904175933 | 95 | 0.0 | 0.0 | 0.00 | 0.00 | 0.00 | 66 | 1022.2 | |
| 20260904175433 | 95 | 0.0 | 0.0 | 0.00 | 0.00 | 0.00 | 65 | 1022.3 | |
| 20260904174933 | 96 | 0.0 | 0.0 | 0.00 | 0.00 | 0.00 | 64 | 1022.4 | |
| 20260904174432 | 98 | 0.0 | 0.0 | 0.00 | 0.00 | 0.00 | 62 | 1022.4 | |
| 20260904173933 | 96 | 0.0 | 0.0 | 0.00 | 0.00 | 0.00 | 64 | 1022.6 | |
| 20260904171433 | 97 | 0.0 | 0.0 | 0.00 | 0.00 | 0.00 | 62 | 1022.8 | |
| 20260904170432 | 96 | 0.0 | 0.0 | 0.00 | 0.00 | 0.00 | 64 | 1022.9 | |
| 20260904164932 | 96 | 0.0 | 0.0 | 0.00 | 0.00 | 0.00 | 64 | 1023.1 | |
| 20260904163433 | 96 | 0.0 | 0.0 | 0.00 | 0.00 | 0.00 | 64 | 1023.3 | |
| 20260904162933 | 96 | 0.0 | 0.0 | 0.00 | 0.00 | 0.00 | 64 | 1023.3 | |
| 20260904162433 | 96 | 0.0 | 0.0 | 0.00 | 0.00 | 0.00 | 64 | 1023.3 | |
| 20260904160933 | 96 | 0.0 | 0.0 | 0.00 | 0.00 | 0.00 | 64 | 1023.3 | |
| 20260904160432 | 97 | 0.0 | 0.0 | 0.00 | 0.00 | 0.00 | 63 | 1023.3 | |
| 20260904155432 | 96 | 0.0 | 0.0 | 0.00 | 0.00 | 0.00 | 64 | 1023.2 | |
| 20260904154933 | 97 | 0.0 | 0.0 | 0.00 | 0.00 | 0.00 | 63 | 1023.1 | |
| 20260904153932 | 96 | 0.0 | 0.0 | 0.00 | 0.00 | 0.00 | 63 | 1023.1 | |
| 20260904152433 | 96 | 0.0 | 0.0 | 0.00 | 0.00 | 0.00 | 63 | 1023.1 | |
| 20260904151432 | 97 | 0.0 | 0.0 | 0.00 | 0.00 | 0.00 | 63 | 1023.1 |